Time;durP1;ratioP1;P1;durP2;ratioP2;P2;SDS_P1;SDS_P2;PMS_P1;PMS_P2;Temp;Humidity;BMP_temperature;BMP_pressure;BME280_temperature;BME280_humidity;BME280_pressure;Samples;Min_cycle;Max_cycle;Signal;HPM_P1;HPM_P2
2023/06/17 00:01:23;;;;;;;6.03;3.50;;;;;;;17.03;50.56;96661.88;4944074;29;20055;-84
2023/06/17 00:03:52;;;;;;;5.90;3.90;;;;;;;16.93;50.98;96664.25;4946005;29;20360;-86
2023/06/17 00:06:20;;;;;;;5.10;3.55;;;;;;;16.85;51.15;96660.06;4946341;29;20134;-86
2023/06/17 00:08:48;;;;;;;7.30;4.07;;;;;;;16.83;51.17;96662.91;4945158;29;20059;-81
2023/06/17 00:11:15;;;;;;;6.88;4.68;;;;;;;16.79;51.52;96661.72;4944556;29;20060;-84
2023/06/17 00:13:43;;;;;;;3.78;3.42;;;;;;;16.75;51.32;96663.19;4942925;29;20055;-86
2023/06/17 00:16:12;;;;;;;4.40;4.00;;;;;;;16.75;51.33;96659.72;4943575;29;20058;-84
2023/06/17 00:18:41;;;;;;;5.78;3.65;;;;;;;16.77;51.33;96663.78;4944284;29;20119;-85
2023/06/17 00:21:10;;;;;;;7.28;4.10;;;;;;;16.76;51.39;96656.09;4944202;29;20115;-82
2023/06/17 00:23:38;;;;;;;4.82;3.72;;;;;;;16.74;51.40;96652.84;4943917;29;20051;-81
2023/06/17 00:26:05;;;;;;;5.80;3.40;;;;;;;16.71;51.39;96656.75;4942454;29;20047;-82
2023/06/17 00:28:33;;;;;;;7.65;4.32;;;;;;;16.66;51.39;96652.13;4942244;29;20071;-81
2023/06/17 00:31:01;;;;;;;4.63;3.65;;;;;;;16.60;51.76;96652.22;4942013;29;20531;-83
2023/06/17 00:33:28;;;;;;;4.07;3.67;;;;;;;16.57;51.75;96656.06;4941857;29;20114;-85
2023/06/17 00:35:56;;;;;;;4.45;3.28;;;;;;;16.52;52.10;96652.47;4941638;29;20052;-80
2023/06/17 00:38:25;;;;;;;6.35;4.13;;;;;;;16.48;52.29;96654.72;4940693;29;20512;-82
2023/06/17 00:40:53;;;;;;;5.40;3.65;;;;;;;16.42;52.19;96655.59;4940462;29;20099;-84
2023/06/17 00:43:20;;;;;;;3.72;3.40;;;;;;;16.36;52.29;96656.50;4939717;29;20545;-80
2023/06/17 00:45:48;;;;;;;4.00;3.53;;;;;;;16.31;52.38;96649.25;4939905;29;20083;-83
2023/06/17 00:48:16;;;;;;;5.05;3.83;;;;;;;16.26;52.64;96646.44;4939106;29;20551;-81
2023/06/17 00:50:46;;;;;;;4.63;3.60;;;;;;;16.24;52.50;96651.09;4939335;29;20472;-85
2023/06/17 00:53:13;;;;;;;3.83;3.42;;;;;;;16.23;52.81;96646.88;4945968;29;20047;-87
2023/06/17 00:55:42;;;;;;;5.00;4.10;;;;;;;16.23;52.86;96649.50;4943045;29;20043;-83
2023/06/17 00:58:11;;;;;;;4.60;3.78;;;;;;;16.20;52.85;96649.94;4943151;29;20496;-84
2023/06/17 01:00:39;;;;;;;5.32;4.22;;;;;;;16.16;53.12;96646.13;4945379;29;20056;-85
2023/06/17 01:03:07;;;;;;;4.47;3.78;;;;;;;16.14;53.11;96645.56;4944376;29;20056;-84
2023/06/17 01:05:35;;;;;;;4.03;3.53;;;;;;;16.13;53.24;96647.34;4944288;29;20052;-81
2023/06/17 01:08:14;;;;;;;5.55;4.15;;;;;;;16.14;53.23;96646.34;4945044;29;20507;-84
2023/06/17 01:10:49;;;;;;;4.47;3.53;;;;;;;16.13;53.09;96646.56;4945194;29;20055;-83
2023/06/17 01:13:18;;;;;;;4.50;4.10;;;;;;;16.08;53.15;96638.50;4943766;29;20051;-86
2023/06/17 01:15:47;;;;;;;7.20;4.40;;;;;;;16.04;53.26;96641.56;4944114;29;20052;-83
2023/06/17 01:18:17;;;;;;;5.25;4.10;;;;;;;16.01;53.39;96639.38;4942650;29;20055;-84
2023/06/17 01:20:47;;;;;;;4.82;4.20;;;;;;;16.01;53.43;96642.00;4942625;29;20051;-85
2023/06/17 01:23:15;;;;;;;10.43;4.07;;;;;;;16.01;53.30;96636.75;4941627;29;20059;-86
2023/06/17 01:25:45;;;;;;;3.90;3.50;;;;;;;15.98;53.56;96638.97;4941689;29;20105;-84
2023/06/17 01:28:16;;;;;;;6.05;3.97;;;;;;;15.99;53.47;96641.41;4941833;29;20104;-81
2023/06/17 01:30:45;;;;;;;3.97;3.63;;;;;;;16.02;53.38;96634.91;4940892;29;20135;-86
2023/06/17 01:33:13;;;;;;;5.40;3.65;;;;;;;16.00;53.69;96632.47;4942502;29;20063;-82
2023/06/17 01:35:46;;;;;;;6.60;4.07;;;;;;;16.01;53.64;96628.84;4941394;29;20053;-80
2023/06/17 01:38:20;;;;;;;5.03;3.78;;;;;;;16.02;53.52;96630.44;4940517;29;20088;-85
2023/06/17 01:40:52;;;;;;;;;;;;;;;16.01;53.15;96633.31;4941844;29;20420;-86
2023/06/17 01:43:22;;;;;;;4.32;3.80;;;;;;;15.96;53.57;96636.59;4940968;29;19923;-83
2023/06/17 01:45:50;;;;;;;3.60;3.30;;;;;;;15.96;53.50;96635.75;4940335;29;20047;-82
2023/06/17 01:48:18;;;;;;;3.72;3.40;;;;;;;15.99;53.59;96630.88;4940384;29;20058;-85
2023/06/17 01:50:46;;;;;;;4.65;3.75;;;;;;;15.97;53.71;96640.81;4940394;29;20051;-82
2023/06/17 01:53:14;;;;;;;4.95;4.10;;;;;;;15.92;53.69;96638.03;4940653;29;20500;-85
2023/06/17 01:55:41;;;;;;;4.88;3.75;;;;;;;15.88;54.12;96644.72;4940515;29;20115;-81
2023/06/17 01:58:11;;;;;;;4.63;4.10;;;;;;;15.86;54.36;96644.13;4940278;29;20052;-80
2023/06/17 02:00:38;;;;;;;5.65;4.88;;;;;;;15.86;54.30;96646.78;4940434;29;20052;-80
2023/06/17 02:03:06;;;;;;;5.68;4.10;;;;;;;15.87;54.24;96645.75;4939842;29;20447;-80
2023/06/17 02:05:34;;;;;;;5.93;4.55;;;;;;;15.89;54.13;96645.53;4939828;29;20075;-81
2023/06/17 02:08:04;;;;;;;5.72;4.10;;;;;;;15.85;54.45;96645.16;4939195;29;20099;-87
2023/06/17 02:10:32;;;;;;;6.70;4.35;;;;;;;15.81;54.33;96641.34;4941381;29;20106;-84
2023/06/17 02:13:03;;;;;;;6.55;4.22;;;;;;;15.77;54.64;96640.16;4943367;29;20050;-84
2023/06/17 02:15:32;;;;;;;5.78;4.35;;;;;;;15.69;55.02;96645.66;4945400;29;20055;-84
2023/06/17 02:18:00;;;;;;;4.72;3.85;;;;;;;15.63;55.04;96645.50;4945472;29;20063;-87
2023/06/17 02:20:28;;;;;;;5.28;4.50;;;;;;;15.57;55.09;96638.44;4944557;29;20102;-85
2023/06/17 02:22:55;;;;;;;5.38;4.10;;;;;;;15.50;55.12;96637.66;4944459;29;20047;-84
2023/06/17 02:25:23;;;;;;;5.22;4.18;;;;;;;15.45;55.27;96637.50;4944699;29;20047;-83
2023/06/17 02:27:51;;;;;;;4.45;4.00;;;;;;;15.42;55.32;96640.56;4944470;29;20247;-81
2023/06/17 02:30:19;;;;;;;6.18;4.10;;;;;;;15.37;55.50;96637.75;4944154;29;20096;-80
2023/06/17 02:32:48;;;;;;;5.80;4.25;;;;;;;15.29;55.82;96636.19;4942749;29;20522;-81
2023/06/17 02:35:16;;;;;;;5.65;4.60;;;;;;;15.24;55.88;96631.56;4943184;29;20492;-82
2023/06/17 02:37:44;;;;;;;5.00;4.22;;;;;;;15.18;55.86;96640.28;4942569;29;20099;-83
2023/06/17 02:40:12;;;;;;;4.25;3.85;;;;;;;15.16;56.03;96631.78;4942837;29;20477;-83
2023/06/17 02:42:39;;;;;;;5.07;3.78;;;;;;;15.15;56.20;96630.19;4947765;29;20079;-82
2023/06/17 02:45:11;;;;;;;4.03;3.70;;;;;;;15.15;56.20;96639.88;4960408;29;20087;-83
2023/06/17 02:47:38;;;;;;;7.00;4.55;;;;;;;15.12;56.24;96625.34;4959677;29;20111;-81
2023/06/17 02:50:08;;;;;;;5.65;4.50;;;;;;;15.08;56.50;96637.28;4948375;29;20056;-88
2023/06/17 02:52:37;;;;;;;6.53;4.30;;;;;;;15.06;56.48;96635.88;4945019;29;20060;-87
2023/06/17 02:55:06;;;;;;;5.53;4.25;;;;;;;15.10;56.59;96631.81;4944013;29;20508;-86
2023/06/17 02:57:35;;;;;;;4.35;3.95;;;;;;;15.12;56.46;96638.47;4944429;29;20055;-85
2023/06/17 03:00:05;;;;;;;4.22;3.83;;;;;;;15.18;56.78;96642.91;4943878;29;20076;-86
2023/06/17 03:02:33;;;;;;;8.70;4.38;;;;;;;15.29;56.32;96640.63;4943988;29;20508;-84
2023/06/17 03:05:01;;;;;;;6.25;4.35;;;;;;;15.30;56.10;96642.22;4943339;29;20353;-86
2023/06/17 03:07:35;;;;;;;5.57;4.30;;;;;;;15.24;56.23;96643.91;4942385;29;20071;-84
2023/06/17 03:10:03;;;;;;;5.32;4.35;;;;;;;15.18;56.30;96639.47;4943145;29;20059;-83
2023/06/17 03:12:31;;;;;;;5.72;4.40;;;;;;;15.10;56.53;96639.72;4943594;29;20500;-86
2023/06/17 03:14:59;;;;;;;6.93;4.95;;;;;;;15.01;56.65;96633.88;4943872;29;20575;-87
2023/06/17 03:17:27;;;;;;;6.50;4.80;;;;;;;14.94;56.91;96636.53;4943122;29;20047;-82
2023/06/17 03:19:56;;;;;;;6.50;5.00;;;;;;;14.87;57.11;96637.56;4944341;29;20094;-87
2023/06/17 03:22:24;;;;;;;5.30;4.50;;;;;;;14.86;57.40;96639.41;4943610;29;20078;-84
2023/06/17 03:24:53;;;;;;;4.15;3.75;;;;;;;14.92;57.51;96641.19;4942157;29;20084;-83
2023/06/17 03:27:21;;;;;;;5.35;4.35;;;;;;;14.97;57.05;96637.94;4944519;29;20051;-87
2023/06/17 03:29:49;;;;;;;6.63;4.60;;;;;;;14.96;57.06;96637.16;4944684;29;20048;-85
2023/06/17 03:32:17;;;;;;;4.95;4.45;;;;;;;14.95;56.99;96639.97;4945407;29;20059;-87
2023/06/17 03:34:45;;;;;;;5.05;4.18;;;;;;;14.92;57.09;96635.16;4944610;29;20048;-84
2023/06/17 03:37:13;;;;;;;5.05;4.43;;;;;;;14.91;57.28;96636.13;4944090;29;20056;-85
2023/06/17 03:39:42;;;;;;;7.72;4.78;;;;;;;14.92;57.23;96645.66;4944726;29;20115;-86
2023/06/17 03:42:11;;;;;;;5.80;4.18;;;;;;;14.96;57.23;96649.47;4945130;29;20059;-86
2023/06/17 03:44:39;;;;;;;5.57;4.85;;;;;;;14.98;56.78;96642.19;4945386;29;20048;-85
2023/06/17 03:47:07;;;;;;;6.85;4.45;;;;;;;14.92;57.21;96646.44;4945827;29;20063;-83
2023/06/17 03:49:35;;;;;;;4.53;4.00;;;;;;;14.82;57.39;96639.03;4945654;29;20087;-83
2023/06/17 03:52:02;;;;;;;8.23;4.28;;;;;;;14.73;57.49;96642.88;4944220;29;20055;-82
2023/06/17 03:54:30;;;;;;;5.75;4.03;;;;;;;14.70;57.84;96643.28;4944340;29;20056;-82
2023/06/17 03:56:58;;;;;;;4.25;3.85;;;;;;;14.74;57.76;96639.25;4943516;29;20056;-84
2023/06/17 03:59:27;;;;;;;3.85;3.42;;;;;;;14.86;57.60;96642.03;4944463;29;20051;-85
2023/06/17 04:01:54;;;;;;;5.43;4.13;;;;;;;14.96;57.29;96641.59;4944274;29;20087;-82
2023/06/17 04:04:22;;;;;;;6.15;3.92;;;;;;;15.02;57.24;96638.09;4943990;29;20115;-82
2023/06/17 04:06:50;;;;;;;4.75;4.18;;;;;;;15.01;57.09;96639.13;4943689;29;20048;-80
2023/06/17 04:09:17;;;;;;;4.40;4.00;;;;;;;15.04;57.29;96638.72;4943368;29;20074;-84
2023/06/17 04:11:45;;;;;;;4.15;3.85;;;;;;;15.09;57.29;96644.16;4942432;29;20124;-82
2023/06/17 04:14:12;;;;;;;6.20;3.97;;;;;;;15.12;56.92;96649.00;4958353;23;20039;-77
2023/06/17 04:16:41;;;;;;;7.70;4.90;;;;;;;15.14;56.96;96643.53;4954958;29;20170;-77
2023/06/17 04:19:13;;;;;;;4.97;4.28;;;;;;;15.19;57.04;96641.88;4955288;29;20130;-78
2023/06/17 04:21:41;;;;;;;5.25;4.15;;;;;;;15.24;56.71;96642.06;4955178;29;20066;-78
2023/06/17 04:24:09;;;;;;;7.60;4.90;;;;;;;15.31;56.45;96647.28;4954807;29;20087;-77
2023/06/17 04:26:37;;;;;;;5.13;4.60;;;;;;;15.31;56.46;96643.88;4954537;29;20057;-77
2023/06/17 04:29:04;;;;;;;6.75;4.28;;;;;;;15.26;56.98;96641.84;4954784;29;20088;-77
2023/06/17 04:31:35;;;;;;;5.53;4.55;;;;;;;15.22;56.98;96640.69;4954961;29;20055;-77
2023/06/17 04:34:05;;;;;;;5.93;4.35;;;;;;;15.19;57.17;96647.13;4954761;29;20047;-77
2023/06/17 04:36:32;;;;;;;5.88;4.40;;;;;;;15.24;56.98;96638.66;4954307;28;20058;-77
2023/06/17 04:39:00;;;;;;;6.68;4.20;;;;;;;15.31;56.81;96646.50;4955045;29;20307;-77
2023/06/17 04:41:28;;;;;;;4.25;3.85;;;;;;;15.40;56.78;96642.59;4954873;29;20047;-77
2023/06/17 04:43:55;;;;;;;7.28;4.80;;;;;;;15.43;56.64;96644.78;4954708;29;20156;-77
2023/06/17 04:46:23;;;;;;;5.05;4.13;;;;;;;15.46;56.52;96641.75;4954343;29;20487;-77
2023/06/17 04:48:51;;;;;;;4.38;3.90;;;;;;;15.52;56.50;96637.47;4954426;29;20051;-77
2023/06/17 04:51:20;;;;;;;5.35;3.92;;;;;;;15.56;56.42;96642.06;4954798;29;20098;-77
2023/06/17 04:53:48;;;;;;;4.93;4.10;;;;;;;15.61;56.31;96644.06;4954274;29;20142;-77
2023/06/17 04:56:15;;;;;;;10.40;4.93;;;;;;;15.63;56.32;96642.03;4954282;29;20051;-77
2023/06/17 04:58:43;;;;;;;6.57;4.50;;;;;;;15.65;56.48;96645.25;4954326;29;20054;-77
2023/06/17 05:01:11;;;;;;;5.35;4.70;;;;;;;15.64;56.47;96636.56;4954164;29;20061;-77
2023/06/17 05:03:39;;;;;;;7.15;4.93;;;;;;;15.60;56.59;96635.38;4954098;29;20376;-77
2023/06/17 05:06:06;;;;;;;5.13;4.55;;;;;;;15.58;56.87;96636.63;4954349;29;20079;-77
2023/06/17 05:08:35;;;;;;;5.53;4.30;;;;;;;15.58;57.03;96640.03;4954303;29;20078;-77
2023/06/17 05:11:03;;;;;;;7.82;4.90;;;;;;;15.62;57.23;96638.59;4955663;29;20047;-77
2023/06/17 05:13:30;;;;;;;5.10;4.60;;;;;;;15.69;56.92;96640.38;4955423;29;20094;-77
2023/06/17 05:15:58;;;;;;;8.63;4.72;;;;;;;15.80;56.62;96637.09;4953381;29;20055;-77
2023/06/17 05:18:26;;;;;;;6.70;5.03;;;;;;;15.87;56.73;96640.47;4953717;29;20141;-77
2023/06/17 05:20:53;;;;;;;4.63;3.60;;;;;;;15.96;56.36;96636.59;4962265;29;20161;-77
2023/06/17 05:23:21;;;;;;;5.18;4.20;;;;;;;16.08;56.00;96643.78;4968270;29;20066;-77
2023/06/17 05:25:50;;;;;;;4.28;3.75;;;;;;;16.20;55.83;96634.13;4968031;29;20055;-78
2023/06/17 05:28:18;;;;;;;4.38;3.97;;;;;;;16.29;55.55;96635.50;4958715;29;20043;-77
2023/06/17 05:30:45;;;;;;;4.82;3.78;;;;;;;16.37;55.71;96637.81;4954664;29;20046;-77
2023/06/17 05:33:13;;;;;;;5.32;4.10;;;;;;;16.41;55.44;96633.75;4954315;29;20051;-77
2023/06/17 05:35:41;;;;;;;4.60;4.20;;;;;;;16.46;55.80;96636.53;4953404;29;20051;-77
2023/06/17 05:38:08;;;;;;;7.18;4.60;;;;;;;16.52;55.78;96636.69;4953646;29;20086;-77
2023/06/17 05:40:36;;;;;;;5.05;4.35;;;;;;;16.58;55.78;96638.44;4957684;29;20043;-77
2023/06/17 05:43:05;;;;;;;6.13;4.70;;;;;;;16.66;55.46;96640.78;4958698;29;20078;-77
2023/06/17 05:45:32;;;;;;;5.43;4.00;;;;;;;16.73;55.54;96635.47;4958709;29;20051;-77
2023/06/17 05:48:00;;;;;;;7.55;3.75;;;;;;;16.77;55.32;96647.97;4957677;29;20079;-77
2023/06/17 05:50:28;;;;;;;4.72;4.20;;;;;;;16.83;55.27;96647.09;4959361;29;20051;-77
2023/06/17 05:52:55;;;;;;;4.93;4.43;;;;;;;16.87;55.46;96648.28;4959068;29;20052;-77
2023/06/17 05:55:23;;;;;;;5.90;4.22;;;;;;;16.92;55.38;96644.19;4955190;29;20051;-77
2023/06/17 05:57:51;;;;;;;4.70;4.20;;;;;;;16.96;55.30;96645.34;4952961;29;20114;-77
2023/06/17 06:00:22;;;;;;;5.78;4.10;;;;;;;17.03;55.27;96640.78;4953388;29;20059;-77
2023/06/17 06:02:50;;;;;;;6.07;4.57;;;;;;;17.10;55.39;96638.91;4953427;29;20051;-77
2023/06/17 06:05:18;;;;;;;4.95;4.45;;;;;;;17.19;55.05;96650.75;4952872;29;20055;-77
2023/06/17 06:07:45;;;;;;;5.25;4.03;;;;;;;17.29;54.79;96643.13;4952783;29;20051;-77
2023/06/17 06:10:13;;;;;;;4.15;3.63;;;;;;;17.40;54.80;96646.00;4952607;29;20574;-77
2023/06/17 06:12:41;;;;;;;4.95;4.45;;;;;;;17.52;54.88;96646.06;4952887;29;20464;-77
2023/06/17 06:15:09;;;;;;;8.55;4.38;;;;;;;17.60;54.79;96638.63;4919034;29;1014325;-77
2023/06/17 06:17:38;;;;;;;8.38;4.68;;;;;;;17.70;54.80;96643.34;4953452;29;20083;-77
2023/06/17 06:20:06;;;;;;;6.00;4.40;;;;;;;17.80;54.82;96645.44;4953495;29;20110;-77
2023/06/17 06:22:33;;;;;;;4.55;4.00;;;;;;;17.88;54.59;96637.22;4953553;29;20055;-77
2023/06/17 06:25:01;;;;;;;6.43;4.28;;;;;;;17.98;54.87;96645.38;4953475;29;20428;-77
2023/06/17 06:27:29;;;;;;;5.15;4.05;;;;;;;18.08;54.48;96652.72;4953488;29;20058;-77
2023/06/17 06:29:56;;;;;;;4.53;4.13;;;;;;;18.17;54.72;96650.56;4953408;29;20044;-78
2023/06/17 06:32:24;;;;;;;6.65;4.68;;;;;;;18.28;54.94;96652.44;4953704;29;20089;-78
2023/06/17 06:34:53;;;;;;;7.28;5.00;;;;;;;18.39;54.47;96664.81;4953436;29;20508;-76
2023/06/17 06:37:21;;;;;;;8.23;4.82;;;;;;;18.48;52.75;96650.22;4952868;29;20051;-77
2023/06/17 06:39:48;;;;;;;5.63;4.30;;;;;;;18.58;51.99;96656.78;4953875;29;20051;-76
2023/06/17 06:42:16;;;;;;;4.75;4.35;;;;;;;18.67;50.68;96655.38;4953179;29;20055;-77
2023/06/17 06:44:44;;;;;;;4.10;3.67;;;;;;;18.77;49.40;96658.25;4953481;29;20103;-77
2023/06/17 06:47:11;;;;;;;6.45;3.72;;;;;;;18.87;49.03;96665.59;4953359;29;20106;-77
2023/06/17 06:49:39;;;;;;;5.20;4.32;;;;;;;18.97;48.81;96662.38;4953201;29;20110;-77
2023/06/17 06:52:08;;;;;;;4.72;4.28;;;;;;;19.09;48.45;96668.44;4953127;29;20130;-75
2023/06/17 06:54:36;;;;;;;4.97;4.40;;;;;;;19.21;48.72;96673.69;4952868;29;20093;-76
2023/06/17 06:57:04;;;;;;;8.48;4.00;;;;;;;19.32;47.80;96673.66;4952666;29;20614;-76
2023/06/17 06:59:32;;;;;;;5.20;4.25;;;;;;;19.45;47.80;96669.13;4954875;28;20051;-76
2023/06/17 07:01:59;;;;;;;5.50;4.43;;;;;;;19.55;47.39;96664.03;4956508;29;20487;-76
2023/06/17 07:04:27;;;;;;;7.50;4.32;;;;;;;19.66;47.06;96679.03;4955999;29;20051;-76
2023/06/17 07:06:55;;;;;;;4.97;3.75;;;;;;;19.78;47.05;96664.97;4956172;29;20049;-76
2023/06/17 07:09:24;;;;;;;5.35;3.67;;;;;;;19.89;46.45;96674.69;4956304;29;20055;-75
2023/06/17 07:11:51;;;;;;;5.25;3.58;;;;;;;19.97;46.36;96676.97;4956084;29;20043;-76
2023/06/17 07:14:19;;;;;;;5.85;4.10;;;;;;;20.08;46.37;96668.13;4955744;29;20062;-75
2023/06/17 07:16:47;;;;;;;4.80;3.58;;;;;;;20.20;45.57;96669.91;4957266;29;20083;-77
2023/06/17 07:19:14;;;;;;;4.32;3.92;;;;;;;20.29;45.35;96665.78;4956221;29;20066;-76
2023/06/17 07:21:42;;;;;;;8.85;3.80;;;;;;;20.37;45.37;96674.13;4956050;29;20051;-75
2023/06/17 07:24:10;;;;;;;6.93;3.80;;;;;;;20.48;44.96;96667.13;4955817;29;20047;-76
2023/06/17 07:26:39;;;;;;;5.28;4.05;;;;;;;20.60;44.44;96666.25;4955719;29;20048;-76
2023/06/17 07:29:06;;;;;;;5.95;3.35;;;;;;;20.71;44.33;96673.34;4955838;29;20055;-75
2023/06/17 07:31:34;;;;;;;6.43;3.97;;;;;;;20.82;44.39;96666.31;4955511;29;20509;-75
2023/06/17 07:34:02;;;;;;;4.28;3.17;;;;;;;20.94;44.02;96672.28;4955834;29;20463;-76
2023/06/17 07:36:29;;;;;;;3.47;3.17;;;;;;;21.05;42.94;96670.56;4955564;29;20051;-75
2023/06/17 07:38:58;;;;;;;4.00;3.60;;;;;;;21.13;42.26;96670.94;4955696;29;20062;-76
2023/06/17 07:41:26;;;;;;;3.95;3.10;;;;;;;21.23;41.79;96664.16;4955683;29;20055;-76
2023/06/17 07:43:55;;;;;;;3.97;3.38;;;;;;;21.30;41.65;96668.22;4955434;29;20047;-76
2023/06/17 07:46:23;;;;;;;3.95;3.53;;;;;;;21.45;41.99;96672.13;4955752;29;20495;-76
2023/06/17 07:48:51;;;;;;;5.18;3.72;;;;;;;21.57;41.64;96660.31;4956272;29;20138;-78
2023/06/17 07:51:18;;;;;;;5.63;3.40;;;;;;;21.67;40.57;96662.28;4956070;29;20134;-77
2023/06/17 07:53:46;;;;;;;5.15;3.83;;;;;;;21.78;40.96;96665.81;4955982;29;20134;-77
2023/06/17 07:56:14;;;;;;;3.67;3.38;;;;;;;21.88;40.12;96665.09;4956144;29;20051;-77
2023/06/17 07:58:43;;;;;;;3.83;3.40;;;;;;;21.98;39.70;96659.91;4955746;29;20088;-77
2023/06/17 08:01:12;;;;;;;4.70;3.85;;;;;;;22.08;39.15;96654.63;4956127;29;20047;-78
2023/06/17 08:03:40;;;;;;;3.85;3.15;;;;;;;22.16;39.16;96653.38;4956595;29;20063;-77
2023/06/17 08:06:08;;;;;;;4.65;3.40;;;;;;;22.25;39.56;96648.44;4955564;29;20098;-76
2023/06/17 08:08:35;;;;;;;4.25;3.85;;;;;;;22.35;38.65;96651.16;4955108;29;20055;-76
2023/06/17 08:11:03;;;;;;;7.72;4.05;;;;;;;22.44;38.67;96641.66;4954379;28;20043;-77
2023/06/17 08:13:30;;;;;;;4.90;3.50;;;;;;;22.56;38.87;96644.91;4954810;29;20529;-77
2023/06/17 08:15:58;;;;;;;3.92;3.47;;;;;;;22.64;38.39;96646.28;4955280;29;20079;-78
2023/06/17 08:18:27;;;;;;;4.93;3.58;;;;;;;22.71;38.08;96646.06;4956056;29;20059;-78
2023/06/17 08:20:55;;;;;;;5.50;3.20;;;;;;;22.77;38.29;96647.69;4956220;29;20110;-78
2023/06/17 08:23:22;;;;;;;4.68;3.38;;;;;;;22.89;37.97;96644.81;4955919;29;20051;-78
2023/06/17 08:25:50;;;;;;;4.35;3.38;;;;;;;23.00;37.49;96643.81;4955465;29;20471;-78
2023/06/17 08:28:17;;;;;;;3.85;3.33;;;;;;;23.10;37.15;96654.50;4956331;29;20078;-78
2023/06/17 08:30:45;;;;;;;4.68;3.67;;;;;;;23.15;36.72;96643.09;4955905;29;20082;-78
2023/06/17 08:33:13;;;;;;;4.03;3.63;;;;;;;23.22;36.61;96646.28;4956181;29;20058;-77
2023/06/17 08:35:42;;;;;;;4.05;3.65;;;;;;;23.32;36.08;96641.00;4955100;29;20066;-78
2023/06/17 08:38:10;;;;;;;5.25;3.55;;;;;;;23.42;36.13;96641.03;4955525;29;20098;-78
2023/06/17 08:40:39;;;;;;;5.75;3.50;;;;;;;23.50;34.50;96644.25;4955717;29;20055;-78
2023/06/17 08:43:07;;;;;;;6.95;3.40;;;;;;;23.52;34.09;96644.78;4955319;29;20102;-78
2023/06/17 08:45:35;;;;;;;5.60;3.83;;;;;;;23.53;33.88;96639.19;4955830;29;20055;-78
2023/06/17 08:48:07;;;;;;;4.15;3.72;;;;;;;23.60;34.23;96649.59;4955954;29;20089;-78
2023/06/17 08:50:35;;;;;;;9.15;4.13;;;;;;;23.67;33.57;96636.03;4956355;29;20051;-78
2023/06/17 08:53:04;;;;;;;4.63;3.65;;;;;;;23.72;32.87;96644.81;4955647;29;20431;-78
2023/06/17 08:55:32;;;;;;;7.00;3.78;;;;;;;23.77;32.95;96638.75;4955189;29;20047;-77
2023/06/17 08:58:00;;;;;;;4.50;3.70;;;;;;;23.88;33.24;96642.19;4954971;29;20078;-78
2023/06/17 09:00:27;;;;;;;5.60;3.83;;;;;;;23.97;32.49;96637.94;4954975;29;20055;-78
2023/06/17 09:02:59;;;;;;;5.05;4.47;;;;;;;23.99;31.32;96633.16;4954947;29;20075;-78
2023/06/17 09:05:27;;;;;;;4.40;3.85;;;;;;;24.02;32.37;96637.94;4954447;29;20440;-78
2023/06/17 09:07:54;;;;;;;6.75;3.92;;;;;;;24.09;31.98;96633.13;4954567;29;20475;-78
2023/06/17 09:10:23;;;;;;;5.55;4.18;;;;;;;24.17;31.73;96640.59;4954846;29;20081;-77
2023/06/17 09:12:52;;;;;;;3.85;3.45;;;;;;;24.25;31.87;96631.28;4954229;29;20483;-78
2023/06/17 09:15:19;;;;;;;5.50;3.78;;;;;;;24.36;31.66;96632.03;4954128;29;20110;-77
2023/06/17 09:17:48;;;;;;;4.88;3.35;;;;;;;24.42;31.66;96631.78;4954313;29;20082;-78
2023/06/17 09:20:17;;;;;;;4.93;4.25;;;;;;;24.52;31.31;96625.63;4954765;29;20580;-77
2023/06/17 09:22:47;;;;;;;4.45;4.00;;;;;;;24.63;31.61;96629.09;4953932;28;20047;-78
2023/06/17 09:25:15;;;;;;;4.40;3.50;;;;;;;24.76;31.45;96619.72;4954808;29;20047;-78
2023/06/17 09:27:50;;;;;;;4.30;3.63;;;;;;;24.90;31.16;96628.72;4955290;29;20155;-78
2023/06/17 09:30:43;;;;;;;10.05;3.50;;;;;;;24.93;30.88;96625.53;4955101;29;20062;-78
2023/06/17 09:33:18;;;;;;;4.28;3.67;;;;;;;24.88;30.91;96620.19;4954995;29;20143;-78
2023/06/17 09:35:46;;;;;;;4.00;3.60;;;;;;;24.81;31.01;96615.16;4954928;29;20420;-77
2023/06/17 09:38:17;;;;;;;4.85;3.63;;;;;;;24.75;31.45;96613.59;4955172;29;20060;-77
2023/06/17 09:40:48;;;;;;;5.35;3.75;;;;;;;24.74;31.54;96608.50;4954465;29;20514;-78
2023/06/17 09:43:17;;;;;;;4.90;3.60;;;;;;;24.80;31.87;96605.56;4954389;29;20043;-78
2023/06/17 09:45:50;;;;;;;6.80;3.60;;;;;;;24.91;31.63;96606.31;4954336;29;20784;-78
2023/06/17 09:48:19;;;;;;;4.65;3.65;;;;;;;25.03;31.26;96608.66;4954457;29;20051;-78
2023/06/17 09:50:48;;;;;;;5.75;4.13;;;;;;;25.08;30.98;96612.09;4954665;29;20095;-78
2023/06/17 09:53:17;;;;;;;4.85;4.35;;;;;;;25.07;31.20;96609.69;4955451;29;20047;-78
2023/06/17 09:55:45;;;;;;;4.70;4.20;;;;;;;25.03;31.05;96616.66;4955914;29;20058;-78
2023/06/17 09:58:14;;;;;;;6.32;4.13;;;;;;;24.98;31.21;96614.81;4956666;29;20066;-78
2023/06/17 10:00:45;;;;;;;5.28;4.15;;;;;;;24.94;30.95;96608.44;4954826;29;20091;-78
2023/06/17 10:03:13;;;;;;;4.70;4.00;;;;;;;24.95;31.01;96602.03;4954790;29;20048;-78
2023/06/17 10:05:41;;;;;;;4.90;4.18;;;;;;;25.01;30.69;96595.56;4954305;29;20048;-78
2023/06/17 10:08:09;;;;;;;4.25;3.67;;;;;;;25.14;30.73;96606.75;4954658;29;20062;-79
2023/06/17 10:10:37;;;;;;;5.30;3.72;;;;;;;25.19;30.26;96602.22;4954649;29;20138;-77
2023/06/17 10:13:06;;;;;;;5.57;4.30;;;;;;;25.16;30.41;96599.25;4954979;29;20102;-78
2023/06/17 10:15:34;;;;;;;7.28;4.25;;;;;;;25.09;30.83;96597.69;4955717;29;20059;-79
2023/06/17 10:18:04;;;;;;;4.07;3.67;;;;;;;25.02;30.52;96602.53;4955340;29;20102;-79
2023/06/17 10:20:32;;;;;;;10.98;4.13;;;;;;;24.92;30.61;96597.22;4956359;29;20055;-79
2023/06/17 10:23:01;;;;;;;4.00;3.63;;;;;;;24.82;30.76;96602.63;4955973;29;20051;-79
2023/06/17 10:25:29;;;;;;;4.13;3.55;;;;;;;24.83;30.54;96599.66;4955456;29;20055;-79
2023/06/17 10:27:57;;;;;;;4.35;3.95;;;;;;;24.93;30.59;96598.03;4957320;29;20127;-79
2023/06/17 10:30:25;;;;;;;6.32;4.10;;;;;;;25.02;30.35;96586.50;4955189;29;20102;-79
2023/06/17 10:32:55;;;;;;;7.43;3.85;;;;;;;25.12;30.45;96584.84;4955099;28;20420;-79
2023/06/17 10:35:25;;;;;;;4.97;3.65;;;;;;;25.22;29.84;96579.50;4958874;29;20055;-79
2023/06/17 10:37:52;;;;;;;4.53;4.13;;;;;;;25.28;29.65;96589.09;4959144;29;20051;-79
2023/06/17 10:40:25;;;;;;;4.78;3.97;;;;;;;25.37;29.15;96589.28;4958940;29;20427;-79
2023/06/17 10:42:56;;;;;;;5.00;3.83;;;;;;;25.43;28.72;96575.63;4959292;29;20062;-79
2023/06/17 10:45:25;;;;;;;4.00;3.55;;;;;;;25.53;28.83;96566.75;4958915;29;20051;-79
2023/06/17 10:48:13;;;;;;;4.05;3.30;;;;;;;25.63;28.37;96571.22;4958907;29;20075;-79
2023/06/17 10:50:43;;;;;;;5.47;3.83;;;;;;;25.67;27.26;96578.41;4958823;29;20047;-79
2023/06/17 10:53:15;;;;;;;4.47;4.00;;;;;;;25.65;26.99;96571.75;4959953;29;20074;-79
2023/06/17 10:55:43;;;;;;;4.47;4.00;;;;;;;25.68;27.21;96563.16;4960006;29;20092;-79
2023/06/17 10:58:11;;;;;;;3.92;3.53;;;;;;;25.76;27.47;96557.22;4960525;29;20051;-79
2023/06/17 11:00:38;;;;;;;4.70;3.42;;;;;;;25.83;27.93;96562.25;4960226;29;20075;-79
2023/06/17 11:03:08;;;;;;;4.25;3.85;;;;;;;25.89;27.91;96564.63;4960041;29;20047;-79
2023/06/17 11:05:37;;;;;;;4.57;4.10;;;;;;;25.94;28.12;96560.31;4959281;29;20130;-79
2023/06/17 11:08:06;;;;;;;4.28;3.75;;;;;;;25.98;27.91;96562.13;4959517;29;20180;-79
2023/06/17 11:10:33;;;;;;;4.45;3.95;;;;;;;26.09;28.37;96557.50;4959709;29;20051;-78
2023/06/17 11:13:01;;;;;;;6.25;3.78;;;;;;;26.18;27.66;96553.13;4959225;29;20051;-79
2023/06/17 11:15:29;;;;;;;4.80;3.90;;;;;;;26.16;27.29;96544.59;4959100;29;20051;-79
2023/06/17 11:18:00;;;;;;;6.28;3.67;;;;;;;26.16;26.84;96536.56;4958171;29;20053;-79
2023/06/17 11:20:30;;;;;;;5.32;3.60;;;;;;;26.20;26.80;96545.63;4958924;29;20479;-79
2023/06/17 11:22:58;;;;;;;5.80;4.05;;;;;;;26.22;26.32;96537.31;4959002;29;20118;-79
2023/06/17 11:25:29;;;;;;;4.10;3.70;;;;;;;26.25;26.33;96537.53;4958830;29;20150;-79
2023/06/17 11:28:11;;;;;;;5.50;3.78;;;;;;;26.34;26.54;96527.00;4958425;29;20077;-79
2023/06/17 11:30:40;;;;;;;4.38;3.70;;;;;;;26.44;26.61;96531.47;4958229;29;20047;-79
2023/06/17 11:33:09;;;;;;;4.53;4.13;;;;;;;26.48;26.04;96541.28;4957873;29;20055;-79
2023/06/17 11:35:38;;;;;;;5.03;3.95;;;;;;;26.41;26.38;96537.34;4958287;29;20055;-79
2023/06/17 11:38:06;;;;;;;6.78;3.92;;;;;;;26.31;26.57;96538.28;4958035;29;20580;-79
2023/06/17 11:40:34;;;;;;;6.78;4.05;;;;;;;26.22;26.85;96548.00;4960123;29;20507;-79